createdAt,value
2019-05-30T00:00:53.861Z,101411.25
2019-05-30T00:03:26.508Z,101405.91
2019-05-30T00:06:00.564Z,101407.73
2019-05-30T00:08:34.422Z,101404.84
2019-05-30T00:11:08.422Z,101406.58
2019-05-30T00:13:40.271Z,101402.67
2019-05-30T00:16:13.206Z,101407.87
2019-05-30T00:18:47.164Z,101399.14
2019-05-30T00:21:20.009Z,101402.30
2019-05-30T00:23:52.866Z,101394.79
2019-05-30T00:26:25.612Z,101408.77
2019-05-30T00:28:58.219Z,101405.35
2019-05-30T00:31:31.637Z,101407.11
2019-05-30T00:34:05.606Z,101402.72
2019-05-30T00:36:38.311Z,101400.22
2019-05-30T00:39:11.406Z,101395.59
2019-05-30T00:41:42.847Z,101393.74
2019-05-30T00:44:17.301Z,101389.41
2019-05-30T00:46:49.929Z,101389.64
2019-05-30T00:49:21.523Z,101389.61
2019-05-30T00:51:56.901Z,101387.39
2019-05-30T00:54:29.417Z,101386.05
2019-05-30T00:57:04.922Z,101390.00
2019-05-30T00:59:38.189Z,101385.77
2019-05-30T01:02:12.341Z,101385.53
2019-05-30T01:04:46.401Z,101376.80
2019-05-30T01:07:18.432Z,101383.51
2019-05-30T01:09:51.514Z,101373.59
2019-05-30T01:12:25.111Z,101370.90
2019-05-30T01:14:57.145Z,101371.75
2019-05-30T01:17:29.236Z,101368.82
2019-05-30T01:20:03.117Z,101368.13
2019-05-30T01:22:35.685Z,101367.46
2019-05-30T01:25:08.401Z,101364.72
2019-05-30T01:27:42.134Z,101368.59
2019-05-30T01:30:17.795Z,101363.58
2019-05-30T01:32:51.075Z,101366.61
2019-05-30T01:35:24.130Z,101356.84
2019-05-30T01:37:55.886Z,101355.19
2019-05-30T01:40:28.436Z,101354.61
2019-05-30T01:43:02.094Z,101346.59
2019-05-30T01:45:34.184Z,101350.75
2019-05-30T01:48:06.508Z,101349.19
2019-05-30T01:50:39.247Z,101352.55
2019-05-30T01:53:10.454Z,101352.35
2019-05-30T01:55:50.243Z,101345.88
2019-05-30T01:58:23.764Z,101352.08
2019-05-30T02:00:55.018Z,101352.87
2019-05-30T02:03:29.435Z,101351.27
2019-05-30T02:06:03.249Z,101350.28
2019-05-30T02:08:35.920Z,101345.88
2019-05-30T02:11:09.645Z,101348.23
2019-05-30T02:13:42.774Z,101346.13
2019-05-30T02:16:15.216Z,101341.03
2019-05-30T02:18:47.152Z,101344.37
2019-05-30T02:21:19.045Z,101345.87
2019-05-30T02:23:50.568Z,101342.16
2019-05-30T02:26:23.969Z,101341.97
2019-05-30T02:28:56.259Z,101344.73
2019-05-30T02:31:38.973Z,101344.50
2019-05-30T02:34:05.292Z,101343.33
2019-05-30T02:36:37.752Z,101346.02
2019-05-30T02:39:11.361Z,101339.50
2019-05-30T02:41:46.393Z,101345.39
2019-05-30T02:44:18.593Z,101340.82
2019-05-30T02:46:52.199Z,101341.82
2019-05-30T02:49:24.329Z,101346.17
2019-05-30T02:51:55.433Z,101348.96
2019-05-30T02:54:29.071Z,101347.26
2019-05-30T02:57:03.406Z,101350.02
2019-05-30T02:59:35.822Z,101344.98
2019-05-30T03:02:16.789Z,101347.77
2019-05-30T03:05:01.630Z,101342.25
2019-05-30T03:07:35.050Z,101344.14
2019-05-30T03:10:11.711Z,101343.67
2019-05-30T03:12:41.396Z,101339.56
2019-05-30T03:15:15.587Z,101342.34
2019-05-30T03:17:48.799Z,101342.58
2019-05-30T03:20:23.691Z,101339.37
2019-05-30T03:22:55.629Z,101340.04
2019-05-30T03:25:29.251Z,101338.19
2019-05-30T03:28:02.775Z,101331.45
2019-05-30T03:30:34.908Z,101338.00
2019-05-30T03:33:26.587Z,101335.17
2019-05-30T03:35:44.686Z,101333.19
2019-05-30T03:38:18.314Z,101330.55
2019-05-30T03:40:49.751Z,101297.09
2019-05-30T03:43:21.288Z,101332.86
2019-05-30T03:45:54.329Z,101332.20
2019-05-30T03:48:27.080Z,101334.70
2019-05-30T03:51:00.128Z,101337.87
2019-05-30T03:53:33.578Z,101333.33
2019-05-30T03:56:12.026Z,101338.72
2019-05-30T03:58:57.325Z,101333.24
2019-05-30T04:01:34.865Z,101330.27
2019-05-30T04:04:20.160Z,101336.44
2019-05-30T04:06:57.418Z,101330.41
2019-05-30T04:09:30.163Z,101338.80
2019-05-30T04:12:14.864Z,101340.06
2019-05-30T04:14:52.404Z,101336.89
2019-05-30T04:17:23.739Z,101338.21
2019-05-30T04:19:55.796Z,101334.16
2019-05-30T04:22:32.299Z,101331.25
2019-05-30T04:25:05.043Z,101335.20
2019-05-30T04:27:36.412Z,101334.73
2019-05-30T04:30:10.003Z,101328.39
2019-05-30T04:32:46.131Z,101328.39
2019-05-30T04:35:19.028Z,101332.23
2019-05-30T04:37:51.275Z,101329.33
2019-05-30T04:40:22.477Z,101327.06
2019-05-30T04:42:53.716Z,101318.33
2019-05-30T04:45:27.937Z,101307.05
2019-05-30T04:47:58.569Z,101325.02
2019-05-30T04:50:30.017Z,101318.98
2019-05-30T04:53:02.584Z,101323.09
2019-05-30T04:55:36.526Z,101322.41
2019-05-30T04:58:11.101Z,101320.23
2019-05-30T05:00:43.838Z,101320.95
2019-05-30T05:03:28.817Z,101320.17
2019-05-30T05:05:52.721Z,101318.56
2019-05-30T05:08:24.450Z,101313.33
2019-05-30T05:10:57.361Z,101320.36
2019-05-30T05:13:29.763Z,101313.23
2019-05-30T05:16:01.972Z,101314.48
2019-05-30T05:18:35.332Z,101307.08
2019-05-30T05:21:07.196Z,101309.09
2019-05-30T05:23:38.358Z,101311.66
2019-05-30T05:26:11.782Z,101313.53
2019-05-30T05:28:43.100Z,101308.41
2019-05-30T05:31:14.709Z,101308.41
2019-05-30T05:33:56.536Z,101307.95
2019-05-30T05:36:25.210Z,101308.84
2019-05-30T05:38:57.720Z,101309.69
2019-05-30T05:41:31.733Z,101312.57
2019-05-30T05:44:03.832Z,101307.22
2019-05-30T05:46:36.409Z,101312.53
2019-05-30T05:49:08.293Z,101308.22
2019-05-30T05:51:39.673Z,101310.36
2019-05-30T05:54:10.762Z,101318.59
2019-05-30T05:56:43.077Z,101322.72
2019-05-30T05:59:17.005Z,101317.08
2019-05-30T06:01:49.157Z,101313.48
2019-05-30T06:04:21.133Z,101317.98
2019-05-30T06:06:53.540Z,101314.56
2019-05-30T06:09:25.853Z,101317.16
2019-05-30T06:11:59.349Z,101314.34
2019-05-30T06:14:32.329Z,101321.29
2019-05-30T06:17:04.592Z,101318.09
2019-05-30T06:19:46.475Z,101318.64
2019-05-30T06:22:17.398Z,101320.34
2019-05-30T06:24:51.439Z,101324.45
2019-05-30T06:27:24.564Z,101316.26
2019-05-30T06:29:58.595Z,101320.14
2019-05-30T06:32:32.500Z,101319.20
2019-05-30T06:35:04.877Z,101312.45
2019-05-30T06:37:38.054Z,101316.71
2019-05-30T06:40:10.459Z,101310.85
2019-05-30T06:42:43.634Z,101307.55
2019-05-30T06:45:16.008Z,101310.80
2019-05-30T06:47:48.423Z,101315.61
2019-05-30T06:50:24.626Z,101315.25
2019-05-30T06:52:58.756Z,101304.34
2019-05-30T06:55:32.568Z,101312.66
2019-05-30T06:58:03.687Z,101313.47
2019-05-30T07:00:34.962Z,101309.89
2019-05-30T07:03:07.107Z,101313.44
2019-05-30T07:05:38.689Z,101319.92
2019-05-30T07:08:13.245Z,101323.77
2019-05-30T07:10:47.142Z,101323.80
2019-05-30T07:13:19.367Z,101324.45
2019-05-30T07:15:52.487Z,101311.61
2019-05-30T07:18:25.704Z,101320.44
2019-05-30T07:20:58.484Z,101322.00
2019-05-30T07:23:39.227Z,101321.39
2019-05-30T07:26:13.199Z,101313.27
2019-05-30T07:28:44.836Z,101323.80
2019-05-30T07:31:16.127Z,101319.89
2019-05-30T07:33:47.959Z,101321.71
2019-05-30T07:36:20.971Z,101321.14
2019-05-30T07:38:54.207Z,101323.07
2019-05-30T07:41:28.772Z,101320.55
2019-05-30T07:44:00.911Z,101321.87
2019-05-30T07:46:33.586Z,101320.04
2019-05-30T07:49:05.761Z,101319.11
2019-05-30T07:51:39.006Z,101321.42
2019-05-30T07:54:10.368Z,101321.19
2019-05-30T07:56:42.378Z,101317.09
2019-05-30T07:59:14.080Z,101329.66
2019-05-30T08:01:47.126Z,101330.14
2019-05-30T08:04:21.223Z,101319.56
2019-05-30T08:06:53.697Z,101318.48
2019-05-30T08:09:29.208Z,101317.76
2019-05-30T08:12:02.567Z,101317.89
2019-05-30T08:14:35.279Z,101317.53
2019-05-30T08:17:09.470Z,101321.78
2019-05-30T08:19:43.457Z,101325.09
2019-05-30T08:22:17.659Z,101323.85
2019-05-30T08:24:51.389Z,101315.22
2019-05-30T08:27:40.263Z,101326.38
2019-05-30T08:30:15.675Z,101326.13
2019-05-30T08:32:48.392Z,101318.92
2019-05-30T08:35:21.920Z,101325.27
2019-05-30T08:37:55.822Z,101322.46
2019-05-30T08:40:31.131Z,101325.30
2019-05-30T08:43:08.688Z,101320.56
2019-05-30T08:45:40.576Z,101328.21
2019-05-30T08:48:12.617Z,101326.30
2019-05-30T08:50:45.921Z,101317.28
2019-05-30T08:53:18.844Z,101313.98
2019-05-30T08:55:52.346Z,101312.38
2019-05-30T08:58:27.343Z,101309.22
2019-05-30T09:00:59.902Z,101309.23
2019-05-30T09:03:33.088Z,101305.27
2019-05-30T09:06:04.662Z,101313.03
2019-05-30T09:08:39.952Z,101311.37
2019-05-30T09:11:11.624Z,101308.66
2019-05-30T09:13:46.684Z,101310.83
2019-05-30T09:16:20.427Z,101313.74
2019-05-30T09:18:57.619Z,101319.70
2019-05-30T09:21:41.351Z,101312.41
2019-05-30T09:24:13.283Z,101312.17
2019-05-30T09:26:47.448Z,101309.09
2019-05-30T09:29:19.194Z,101308.88
2019-05-30T09:31:50.421Z,101312.75
2019-05-30T09:34:24.007Z,101309.84
2019-05-30T09:36:58.232Z,101317.48
2019-05-30T09:39:34.108Z,101316.44
2019-05-30T09:42:07.994Z,101306.55
2019-05-30T09:44:41.101Z,101307.05
2019-05-30T09:47:14.766Z,101314.34
2019-05-30T09:49:48.588Z,101309.36
2019-05-30T09:52:20.706Z,101309.84
2019-05-30T09:54:53.570Z,101310.68
2019-05-30T09:57:27.662Z,101313.84
2019-05-30T10:00:01.783Z,101319.48
2019-05-30T10:02:34.201Z,101305.59
2019-05-30T10:05:09.921Z,101313.98
2019-05-30T10:07:43.549Z,101320.42
2019-05-30T10:10:16.292Z,101313.39
2019-05-30T10:12:50.387Z,101301.80
2019-05-30T10:15:23.223Z,101305.56
2019-05-30T10:17:56.996Z,101296.94
2019-05-30T10:20:29.957Z,101286.80
2019-05-30T10:23:03.706Z,101294.34
2019-05-30T10:25:36.329Z,101296.76
2019-05-30T10:28:08.773Z,101301.03
2019-05-30T10:30:40.442Z,101291.94
2019-05-30T10:33:12.749Z,101272.89
2019-05-30T10:35:47.355Z,101292.92
2019-05-30T10:39:08.054Z,101283.64
2019-05-30T10:41:49.057Z,101291.45
2019-05-30T10:44:21.521Z,101291.45
2019-05-30T10:46:54.548Z,101301.92
2019-05-30T10:49:34.606Z,101295.34
2019-05-30T10:52:01.856Z,101294.88
2019-05-30T10:54:34.329Z,101296.92
2019-05-30T10:57:07.526Z,101299.24
2019-05-30T10:59:40.319Z,101292.78
2019-05-30T11:02:13.244Z,101289.88
2019-05-30T11:04:47.789Z,101290.47
2019-05-30T11:07:33.970Z,101299.25
2019-05-30T11:10:11.443Z,101297.06
2019-05-30T11:12:44.271Z,101284.87
2019-05-30T11:15:16.298Z,101293.98
2019-05-30T11:17:50.541Z,101298.00
2019-05-30T11:20:23.327Z,101298.41
2019-05-30T11:22:54.744Z,101291.81
2019-05-30T11:25:26.689Z,101291.92
2019-05-30T11:28:00.088Z,101291.92
2019-05-30T11:30:33.000Z,101293.03
2019-05-30T11:33:06.241Z,101291.32
2019-05-30T11:35:37.932Z,101286.45
2019-05-30T11:38:11.375Z,101288.55
2019-05-30T11:40:45.360Z,101288.77
2019-05-30T11:43:18.837Z,101293.78
2019-05-30T11:45:51.638Z,101291.45
2019-05-30T11:48:23.305Z,101281.31
2019-05-30T11:50:57.890Z,101294.73
2019-05-30T11:53:29.892Z,101292.18
2019-05-30T11:56:03.904Z,101293.42
2019-05-30T11:58:36.116Z,101291.08
2019-05-30T12:01:08.311Z,101292.78
2019-05-30T12:03:40.159Z,101288.74
2019-05-30T12:06:12.675Z,101287.30
2019-05-30T12:08:44.823Z,101289.25
2019-05-30T12:11:15.941Z,101295.09
2019-05-30T12:13:48.202Z,101293.98
2019-05-30T12:16:20.544Z,101297.65
2019-05-30T12:18:53.951Z,101292.55
2019-05-30T12:21:29.806Z,101293.27
2019-05-30T12:24:02.393Z,101296.92
2019-05-30T12:26:34.746Z,101293.88
2019-05-30T12:29:07.315Z,101294.73
2019-05-30T12:31:39.695Z,101296.21
2019-05-30T12:34:13.695Z,101300.46
2019-05-30T12:36:45.538Z,101290.61
2019-05-30T12:39:19.813Z,101301.06
2019-05-30T12:41:53.415Z,101295.58
2019-05-30T12:44:26.872Z,101295.58
2019-05-30T12:46:59.236Z,101298.03
2019-05-30T12:49:32.473Z,101296.94
2019-05-30T12:52:03.519Z,101304.13
2019-05-30T12:54:36.255Z,101298.03
2019-05-30T12:57:08.354Z,101301.81
2019-05-30T12:59:39.826Z,101311.80
2019-05-30T13:02:13.358Z,101303.98
2019-05-30T13:04:45.414Z,101308.36
2019-05-30T13:07:18.290Z,101314.56
2019-05-30T13:09:50.093Z,101313.23
2019-05-30T13:12:21.196Z,101310.20
2019-05-30T13:14:55.491Z,101312.48
2019-05-30T13:17:27.136Z,101309.59
2019-05-30T13:20:01.474Z,101313.14
2019-05-30T13:22:32.958Z,101304.72
2019-05-30T13:25:05.692Z,101313.12
2019-05-30T13:27:37.920Z,101316.41
2019-05-30T13:30:10.938Z,101319.55
2019-05-30T13:32:42.945Z,101307.19
2019-05-30T13:35:17.234Z,101312.72
2019-05-30T13:37:48.663Z,101306.70
2019-05-30T13:40:24.893Z,101305.89
2019-05-30T13:42:54.319Z,101306.05
2019-05-30T13:45:26.524Z,101308.03
2019-05-30T13:48:02.465Z,101310.47
2019-05-30T13:50:35.051Z,101303.12
2019-05-30T13:53:09.214Z,101302.40
2019-05-30T13:55:41.783Z,101299.98
2019-05-30T13:58:14.488Z,101305.47
2019-05-30T14:00:46.777Z,101309.05
2019-05-30T14:03:20.265Z,101312.52
2019-05-30T14:05:51.918Z,101315.45
2019-05-30T14:08:25.281Z,101312.36
2019-05-30T14:10:57.562Z,101309.60
2019-05-30T14:13:30.537Z,101314.80
2019-05-30T14:16:03.261Z,101309.48
2019-05-30T14:18:36.407Z,101311.78
2019-05-30T14:21:09.500Z,101305.80
2019-05-30T14:23:40.675Z,101304.03
2019-05-30T14:26:13.035Z,101300.14
2019-05-30T14:28:45.519Z,101305.11
2019-05-30T14:31:17.714Z,101310.80
2019-05-30T14:34:02.098Z,101312.98
2019-05-30T14:36:37.660Z,101304.33
2019-05-30T14:39:11.233Z,101302.10
2019-05-30T14:41:44.126Z,101304.20
2019-05-30T14:44:15.386Z,101301.44
2019-05-30T14:46:59.701Z,101304.09
2019-05-30T14:49:32.092Z,101295.18
2019-05-30T14:52:11.853Z,101291.69
2019-05-30T14:54:47.030Z,101291.52
2019-05-30T14:57:26.328Z,101295.71
2019-05-30T14:59:58.417Z,101292.28
2019-05-30T15:02:35.693Z,101289.17
2019-05-30T15:05:11.458Z,101297.73
2019-05-30T15:07:42.729Z,101289.33
2019-05-30T15:10:14.343Z,101293.80
2019-05-30T15:12:45.660Z,101289.11
2019-05-30T15:15:18.789Z,101300.17
2019-05-30T15:17:50.438Z,101292.00
2019-05-30T15:20:22.947Z,101295.69
2019-05-30T15:22:54.954Z,101294.36
2019-05-30T15:25:26.193Z,101294.11
2019-05-30T15:27:57.962Z,101290.10
2019-05-30T15:30:30.462Z,101289.38
2019-05-30T15:33:02.472Z,101293.63
2019-05-30T15:35:35.284Z,101294.73
2019-05-30T15:38:08.784Z,101286.78
2019-05-30T15:40:41.173Z,101279.23
2019-05-30T15:43:13.428Z,101282.27
2019-05-30T15:45:45.502Z,101283.16
2019-05-30T15:48:22.271Z,101285.91
2019-05-30T15:50:54.649Z,101283.30
2019-05-30T15:53:27.138Z,101281.77
2019-05-30T15:55:59.638Z,101283.09
2019-05-30T15:58:32.954Z,101287.26
2019-05-30T16:01:05.164Z,101280.55
2019-05-30T16:03:36.917Z,101282.16
2019-05-30T16:06:08.100Z,101286.68
2019-05-30T16:08:45.393Z,101288.33
2019-05-30T16:11:14.953Z,101284.87
2019-05-30T16:13:46.913Z,101286.98
2019-05-30T16:16:33.763Z,101290.64
2019-05-30T16:18:53.311Z,101283.98
2019-05-30T16:21:31.537Z,101289.94
2019-05-30T16:24:03.694Z,101293.27
2019-05-30T16:26:34.967Z,101296.23
2019-05-30T16:29:07.792Z,101290.64
2019-05-30T16:31:40.566Z,101291.11
2019-05-30T16:34:12.103Z,101297.81
2019-05-30T16:36:44.527Z,101301.08
2019-05-30T16:39:16.086Z,101297.55
2019-05-30T16:41:47.132Z,101294.80
2019-05-30T16:44:20.432Z,101292.22
2019-05-30T16:46:54.971Z,101292.97
2019-05-30T16:49:28.338Z,101294.66
2019-05-30T16:52:00.908Z,101294.14
2019-05-30T16:54:32.274Z,101291.31
2019-05-30T16:57:03.513Z,101292.88
2019-05-30T16:59:36.478Z,101291.61
2019-05-30T17:02:08.228Z,101297.87
2019-05-30T17:04:39.790Z,101289.62
2019-05-30T17:07:11.130Z,101294.00
2019-05-30T17:09:42.859Z,101293.09
2019-05-30T17:12:15.335Z,101297.30
2019-05-30T17:14:46.865Z,101293.50
2019-05-30T17:17:18.236Z,101297.03
2019-05-30T17:19:49.371Z,101299.12
2019-05-30T17:22:20.809Z,101296.44
2019-05-30T17:24:54.537Z,101292.91
2019-05-30T17:30:15.956Z,101292.67
2019-05-30T17:32:48.189Z,101295.84
2019-05-30T17:35:20.102Z,101292.78
2019-05-30T17:37:52.170Z,101291.78
2019-05-30T17:40:39.111Z,101291.83
2019-05-30T17:42:58.538Z,101295.32
2019-05-30T17:45:30.347Z,101295.47
2019-05-30T17:48:15.986Z,101303.27
2019-05-30T17:50:38.207Z,101298.98
2019-05-30T17:53:10.173Z,101297.91
2019-05-30T17:55:42.375Z,101301.92
2019-05-30T17:58:15.045Z,101311.55
2019-05-30T18:00:46.490Z,101308.24
2019-05-30T18:03:18.084Z,101304.22
2019-05-30T18:05:49.782Z,101313.61
2019-05-30T18:08:21.210Z,101316.69
2019-05-30T18:10:54.023Z,101318.13
2019-05-30T18:13:27.096Z,101315.81
2019-05-30T18:16:03.758Z,101317.52
2019-05-30T18:18:35.087Z,101320.56
2019-05-30T18:21:07.274Z,101326.66
2019-05-30T18:23:39.126Z,101323.75
2019-05-30T18:26:11.890Z,101324.45
2019-05-30T18:28:43.373Z,101320.92
2019-05-30T18:31:15.297Z,101327.63
2019-05-30T18:33:48.497Z,101324.23
2019-05-30T18:36:19.744Z,101328.37
2019-05-30T18:38:51.117Z,101327.28
2019-05-30T18:41:22.710Z,101323.13
2019-05-30T18:43:53.958Z,101327.87
2019-05-30T18:46:25.139Z,101322.75
2019-05-30T18:48:59.823Z,101329.33
2019-05-30T18:51:34.371Z,101328.61
2019-05-30T18:54:06.848Z,101327.39
2019-05-30T18:56:41.128Z,101319.34
2019-05-30T18:59:16.134Z,101322.52
2019-05-30T19:01:50.725Z,101323.12
2019-05-30T19:04:31.609Z,101330.42
2019-05-30T19:07:05.123Z,101323.84
2019-05-30T19:09:41.437Z,101335.41
2019-05-30T19:12:17.042Z,101340.89
2019-05-30T19:14:52.287Z,101337.96
2019-05-30T19:17:25.706Z,101346.49
2019-05-30T19:20:03.897Z,101344.17
2019-05-30T19:22:37.461Z,101349.03
2019-05-30T19:25:12.238Z,101346.35
2019-05-30T19:27:51.547Z,101349.63
2019-05-30T19:30:26.975Z,101360.09
2019-05-30T19:33:01.306Z,101357.66
2019-05-30T19:35:33.472Z,101357.77
2019-05-30T19:38:06.460Z,101358.52
2019-05-30T19:40:44.683Z,101365.09
2019-05-30T19:43:19.438Z,101362.03
2019-05-30T19:45:53.386Z,101360.45
2019-05-30T19:48:25.405Z,101369.36
2019-05-30T19:51:07.956Z,101367.72
2019-05-30T19:53:44.469Z,101365.95
2019-05-30T19:56:14.658Z,101377.75
2019-05-30T19:58:52.235Z,101375.87
2019-05-30T20:01:24.585Z,101377.61
2019-05-30T20:03:57.118Z,101375.66
2019-05-30T20:06:28.153Z,101380.14
2019-05-30T20:09:00.068Z,101382.06
2019-05-30T20:11:33.222Z,101386.83
2019-05-30T20:14:04.622Z,101376.52
2019-05-30T20:16:35.751Z,101384.17
2019-05-30T20:19:07.099Z,101386.52
2019-05-30T20:21:39.875Z,101381.88
2019-05-30T20:24:10.581Z,101382.96
2019-05-30T20:26:41.318Z,101389.39
2019-05-30T20:29:12.688Z,101386.95
2019-05-30T20:31:43.655Z,101384.61
2019-05-30T20:34:14.308Z,101387.27
2019-05-30T20:36:45.068Z,101392.67
2019-05-30T20:39:15.705Z,101387.81
2019-05-30T20:41:47.243Z,101394.62
2019-05-30T20:44:18.119Z,101387.79
2019-05-30T20:46:49.809Z,101394.41
2019-05-30T20:49:20.113Z,101371.55
2019-05-30T20:51:50.701Z,101391.80
2019-05-30T20:54:21.237Z,101390.91
2019-05-30T20:56:51.988Z,101390.21
2019-05-30T20:59:25.516Z,101387.40
2019-05-30T21:01:56.282Z,101389.36
2019-05-30T21:04:26.795Z,101389.56
2019-05-30T21:06:58.629Z,101385.42
2019-05-30T21:09:30.322Z,101379.91
2019-05-30T21:12:02.649Z,101386.03
2019-05-30T21:14:35.541Z,101386.86
2019-05-30T21:17:06.318Z,101385.44
2019-05-30T21:19:37.777Z,101379.47
2019-05-30T21:22:09.374Z,101379.88
2019-05-30T21:24:40.650Z,101381.91
2019-05-30T21:27:11.454Z,101378.39
2019-05-30T21:29:43.068Z,101382.80
2019-05-30T21:32:14.454Z,101391.21
2019-05-30T21:34:46.588Z,101390.82
2019-05-30T21:37:17.647Z,101386.39
2019-05-30T21:39:49.065Z,101383.88
2019-05-30T21:42:19.819Z,101385.20
2019-05-30T21:44:52.758Z,101377.67
2019-05-30T21:47:23.256Z,101390.30
2019-05-30T21:49:53.559Z,101389.62
2019-05-30T21:52:24.201Z,101390.47
2019-05-30T21:54:54.504Z,101377.91
2019-05-30T21:57:25.610Z,101388.97
2019-05-30T21:59:56.202Z,101382.97
2019-05-30T22:02:27.096Z,101375.80
2019-05-30T22:04:57.263Z,101382.93
2019-05-30T22:07:27.700Z,101383.22
2019-05-30T22:09:57.946Z,101384.28
2019-05-30T22:12:29.818Z,101385.77
2019-05-30T22:15:00.319Z,101389.03
2019-05-30T22:17:30.363Z,101386.03
2019-05-30T22:20:01.446Z,101385.14
2019-05-30T22:22:33.575Z,101383.81
2019-05-30T22:25:04.623Z,101386.48
2019-05-30T22:27:35.194Z,101383.22
2019-05-30T22:30:06.842Z,101384.45
2019-05-30T22:32:38.522Z,101390.34
2019-05-30T22:35:10.148Z,101383.50
2019-05-30T22:37:40.567Z,101382.38
2019-05-30T22:40:11.543Z,101382.27
2019-05-30T22:42:41.803Z,101386.00
2019-05-30T22:45:12.228Z,101377.04
2019-05-30T22:47:44.126Z,101388.23
2019-05-30T22:50:31.063Z,101388.94
2019-05-30T22:53:01.118Z,101389.13
2019-05-30T22:55:31.340Z,101381.29
2019-05-30T22:58:01.917Z,101380.75
2019-05-30T23:00:32.175Z,101374.30
2019-05-30T23:03:02.730Z,101376.92
2019-05-30T23:05:33.013Z,101374.30
2019-05-30T23:08:03.484Z,101377.15
2019-05-30T23:10:34.824Z,101374.78
2019-05-30T23:13:04.984Z,101383.20
2019-05-30T23:15:36.203Z,101376.34
2019-05-30T23:18:07.137Z,101378.63
2019-05-30T23:20:37.180Z,101377.91
2019-05-30T23:23:07.805Z,101372.74
2019-05-30T23:25:37.672Z,101359.39
2019-05-30T23:28:08.954Z,101370.03
2019-05-30T23:30:39.250Z,101362.94
2019-05-30T23:33:09.981Z,101365.70
2019-05-30T23:35:40.275Z,101361.66
2019-05-30T23:38:12.145Z,101369.08
2019-05-30T23:40:42.901Z,101363.09
2019-05-30T23:47:18.737Z,101357.16
2019-05-30T23:49:51.661Z,101353.37
2019-05-30T23:52:22.358Z,101357.48
2019-05-30T23:54:52.732Z,101353.63
2019-05-30T23:57:22.903Z,101351.59
2019-05-30T23:59:54.751Z,101360.10
